Time;durP1;ratioP1;P1;durP2;ratioP2;P2;SDS_P1;SDS_P2;PMS_P1;PMS_P2;Temp;Humidity;BMP_temperature;BMP_pressure;BME280_temperature;BME280_humidity;BME280_pressure;Samples;Min_cycle;Max_cycle;Signal;HPM_P1;HPM_P2
2023/12/21 00:00:37;;;;;;;;;;;;;;;;;;5096509;28;19954;-73
2023/12/21 00:03:03;;;;;;;;;;;;;;;;;;5097389;28;19908;-74
2023/12/21 00:05:29;;;;;;;;;;;;;;;;;;5078157;28;19912;-74
2023/12/21 00:07:55;;;;;;;;;;;;;;;;;;5096693;28;19912;-73
2023/12/21 00:10:21;;;;;;;;;;;;;;;;;;5096611;28;19908;-72
2023/12/21 00:12:47;;;;;;;;;;;;;;;;;;5096227;28;19915;-72
2023/12/21 00:15:13;;;;;;;;;;;;;;;;;;5096629;28;19908;-73
2023/12/21 00:17:39;;;;;;;;;;;;;;;;;;5095917;28;19958;-73
2023/12/21 00:20:05;;;;;;;;;;;;;;;;;;5096091;28;20006;-73
2023/12/21 00:22:31;;;;;;;;;;;;;;;;;;5096376;28;20399;-73
2023/12/21 00:24:57;;;;;;;;;;;;;;;;;;5078150;28;20291;-73
2023/12/21 00:27:23;;;;;;;;;;;;;;;;;;5095964;28;19908;-73
2023/12/21 00:29:49;;;;;;;;;;;;;;;;;;5096249;28;19912;-73
2023/12/21 00:32:15;;;;;;;;;;;;;;;;;;5096257;28;19908;-73
2023/12/21 00:34:42;;;;;;;;;;;;;;;;;;5095740;28;20006;-73
2023/12/21 00:37:08;;;;;;;;;;;;;;;;;;5077976;28;19912;-73
2023/12/21 00:39:34;;;;;;;;;;;;;;;;;;5096008;28;19908;-73
2023/12/21 00:42:00;;;;;;;;;;;;;;;;;;5095626;28;19955;-73
2023/12/21 00:44:26;;;;;;;;;;;;;;;;;;5095672;28;19920;-73
2023/12/21 00:46:52;;;;;;;;;;;;;;;;;;5095953;28;19915;-73
2023/12/21 00:49:18;;;;;;;;;;;;;;;;;;5095457;28;19952;-73
2023/12/21 00:51:44;;;;;;;;;;;;;;;;;;5095814;28;19954;-73
2023/12/21 00:54:10;;;;;;;;;;;;;;;;;;5095822;28;20372;-73
2023/12/21 00:56:36;;;;;;;;;;;;;;;;;;5077137;28;19944;-73
2023/12/21 00:59:04;;;;;;;;;;;;;;;;;;5095672;28;20257;-73
2023/12/21 01:01:30;;;;;;;;;;;;;;;;;;5095545;28;20399;-73
2023/12/21 01:03:55;;;;;;;;;;;;;;;;;;5095121;28;19920;-73
2023/12/21 01:06:21;;;;;;;;;;;;;;;;;;5095523;28;19908;-73
2023/12/21 01:08:47;;;;;;;;;;;;;;;;;;5095239;28;19915;-73
2023/12/21 01:11:14;;;;;;;;;;;;;;;;;;5077285;28;19908;-73
2023/12/21 01:13:40;;;;;;;;;;;;;;;;;;5095351;28;20348;-73
2023/12/21 01:16:06;;;;;;;;;;;;;;;;;;5094869;28;19915;-73
2023/12/21 01:18:32;;;;;;;;;;;;;;;;;;5095309;28;19908;-73
2023/12/21 01:20:58;;;;;;;;;;;;;;;;;;5095269;28;20396;-74
2023/12/21 01:23:24;;;;;;;;;;;;;;;;;;5094792;28;19959;-73
2023/12/21 01:25:50;;;;;;;;;;;;;;;;;;5076962;28;19919;-73
2023/12/21 01:28:16;;;;;;;;;;;;;;;;;;5094496;28;20011;-73
2023/12/21 01:30:42;;;;;;;;;;;;;;;;;;5094753;28;19908;-73
2023/12/21 01:33:08;;;;;;;;;;;;;;;;;;5095342;28;19912;-73
2023/12/21 01:35:34;;;;;;;;;;;;;;;;;;5094967;28;19952;-73
2023/12/21 01:38:00;;;;;;;;;;;;;;;;;;5094644;28;19915;-73
2023/12/21 01:40:26;;;;;;;;;;;;;;;;;;5094891;28;20382;-73
2023/12/21 01:42:52;;;;;;;;;;;;;;;;;;5094683;28;19908;-72
2023/12/21 01:45:18;;;;;;;;;;;;;;;;;;5094468;28;19945;-73
2023/12/21 01:47:44;;;;;;;;;;;;;;;;;;5094800;28;19909;-73
2023/12/21 01:50:10;;;;;;;;;;;;;;;;;;5094711;28;20002;-73
2023/12/21 01:52:36;;;;;;;;;;;;;;;;;;5094423;28;19962;-73
2023/12/21 01:55:02;;;;;;;;;;;;;;;;;;5076492;28;20380;-73
2023/12/21 01:57:28;;;;;;;;;;;;;;;;;;5094607;28;20361;-73
2023/12/21 01:59:54;;;;;;;;;;;;;;;;;;5094142;28;19948;-73
2023/12/21 02:02:20;;;;;;;;;;;;;;;;;;5094550;28;20349;-73
2023/12/21 02:04:46;;;;;;;;;;;;;;;;;;5094392;28;19942;-73
2023/12/21 02:07:12;;;;;;;;;;;;;;;;;;5075889;28;20370;-73
2023/12/21 02:09:38;;;;;;;;;;;;;;;;;;5076257;28;20276;-73
2023/12/21 02:12:03;;;;;;;;;;;;;;;;;;5093948;28;19919;-73
2023/12/21 02:14:29;;;;;;;;;;;;;;;;;;5076157;28;19912;-73
2023/12/21 02:16:56;;;;;;;;;;;;;;;;;;5094585;28;19947;-73
2023/12/21 02:19:22;;;;;;;;;;;;;;;;;;5094110;28;19912;-73
2023/12/21 02:21:48;;;;;;;;;;;;;;;;;;5094237;28;19915;-72
2023/12/21 02:24:14;;;;;;;;;;;;;;;;;;5094669;28;20372;-73
2023/12/21 02:26:40;;;;;;;;;;;;;;;;;;5093690;28;19916;-73
2023/12/21 02:29:06;;;;;;;;;;;;;;;;;;5094253;28;19908;-73
2023/12/21 02:31:31;;;;;;;;;;;;;;;;;;5075995;28;20318;-73
2023/12/21 02:33:57;;;;;;;;;;;;;;;;;;5093747;28;20287;-74
2023/12/21 02:36:23;;;;;;;;;;;;;;;;;;5094058;28;19912;-73
2023/12/21 02:38:49;;;;;;;;;;;;;;;;;;5093798;28;19914;-73
2023/12/21 02:41:15;;;;;;;;;;;;;;;;;;5093638;28;19908;-73
2023/12/21 02:43:41;;;;;;;;;;;;;;;;;;5075536;28;19924;-73
2023/12/21 02:46:07;;;;;;;;;;;;;;;;;;5075815;28;19931;-73
2023/12/21 02:48:33;;;;;;;;;;;;;;;;;;5093585;28;19908;-73
2023/12/21 02:50:59;;;;;;;;;;;;;;;;;;5093928;28;19919;-73
2023/12/21 02:53:25;;;;;;;;;;;;;;;;;;5093958;28;19908;-73
2023/12/21 02:55:51;;;;;;;;;;;;;;;;;;5093567;28;19997;-73
2023/12/21 02:58:17;;;;;;;;;;;;;;;;;;5093820;28;19922;-73
2023/12/21 03:00:44;;;;;;;;;;;;;;;;;;5093896;28;19908;-73
2023/12/21 03:03:10;;;;;;;;;;;;;;;;;;5093369;28;19930;-73
2023/12/21 03:05:36;;;;;;;;;;;;;;;;;;5075758;28;20387;-73
2023/12/21 03:08:02;;;;;;;;;;;;;;;;;;5093712;28;19951;-73
2023/12/21 03:10:28;;;;;;;;;;;;;;;;;;5093331;28;19948;-72
2023/12/21 03:12:54;;;;;;;;;;;;;;;;;;5093963;28;19912;-73
2023/12/21 03:15:20;;;;;;;;;;;;;;;;;;5093240;28;19977;-74
2023/12/21 03:17:46;;;;;;;;;;;;;;;;;;5093659;28;19908;-73
2023/12/21 03:20:12;;;;;;;;;;;;;;;;;;5093671;28;19954;-73
2023/12/21 03:22:38;;;;;;;;;;;;;;;;;;5093244;28;19913;-73
2023/12/21 03:25:04;;;;;;;;;;;;;;;;;;5075414;28;19959;-73
2023/12/21 03:27:30;;;;;;;;;;;;;;;;;;5093624;28;19908;-72
2023/12/21 03:29:56;;;;;;;;;;;;;;;;;;5093125;28;20061;-73
2023/12/21 03:32:22;;;;;;;;;;;;;;;;;;5093531;28;19908;-73
2023/12/21 03:34:48;;;;;;;;;;;;;;;;;;5093490;28;19999;-73
2023/12/21 03:37:14;;;;;;;;;;;;;;;;;;5093007;28;19920;-73
2023/12/21 03:39:40;;;;;;;;;;;;;;;;;;5093467;28;19909;-73
2023/12/21 03:42:06;;;;;;;;;;;;;;;;;;5093446;28;19915;-73
2023/12/21 03:44:32;;;;;;;;;;;;;;;;;;5092728;28;20280;-72
2023/12/21 03:46:58;;;;;;;;;;;;;;;;;;5093367;28;20346;-73
2023/12/21 03:49:28;;;;;;;;;;;;;;;;;;5093302;28;19930;-73
2023/12/21 03:51:54;;;;;;;;;;;;;;;;;;5076831;28;19946;-73
2023/12/21 03:54:20;;;;;;;;;;;;;;;;;;5096971;28;20380;-73
2023/12/21 03:56:46;;;;;;;;;;;;;;;;;;5096961;28;19912;-73
2023/12/21 03:59:12;;;;;;;;;;;;;;;;;;5078298;28;19908;-73
2023/12/21 04:01:38;;;;;;;;;;;;;;;;;;5096892;28;20339;-72
2023/12/21 04:04:04;;;;;;;;;;;;;;;;;;5096754;28;20318;-73
2023/12/21 04:06:30;;;;;;;;;;;;;;;;;;5096299;28;20291;-72
2023/12/21 04:08:56;;;;;;;;;;;;;;;;;;5096745;28;20269;-73
2023/12/21 04:11:22;;;;;;;;;;;;;;;;;;5096804;28;20010;-73
2023/12/21 04:13:48;;;;;;;;;;;;;;;;;;5096211;28;20415;-73
2023/12/21 04:16:13;;;;;;;;;;;;;;;;;;5096509;28;20380;-73
2023/12/21 04:18:39;;;;;;;;;;;;;;;;;;5078061;28;19915;-73
2023/12/21 04:21:05;;;;;;;;;;;;;;;;;;5096549;28;19913;-72
2023/12/21 04:23:31;;;;;;;;;;;;;;;;;;5096329;28;20011;-72
2023/12/21 04:25:57;;;;;;;;;;;;;;;;;;5096456;28;19908;-72
2023/12/21 04:28:23;;;;;;;;;;;;;;;;;;5096845;28;20322;-72
2023/12/21 04:30:49;;;;;;;;;;;;;;;;;;5096651;28;19908;-73
2023/12/21 04:33:15;;;;;;;;;;;;;;;;;;5095967;28;19947;-73
2023/12/21 04:35:41;;;;;;;;;;;;;;;;;;5096238;28;19953;-73
2023/12/21 04:38:07;;;;;;;;;;;;;;;;;;5096147;28;19908;-74
2023/12/21 04:40:33;;;;;;;;;;;;;;;;;;5095685;28;19999;-73
2023/12/21 04:42:59;;;;;;;;;;;;;;;;;;5095998;28;20394;-73
2023/12/21 04:45:25;;;;;;;;;;;;;;;;;;5095991;28;19916;-73
2023/12/21 04:47:51;;;;;;;;;;;;;;;;;;5095596;28;20011;-73
2023/12/21 04:50:18;;;;;;;;;;;;;;;;;;5095921;28;19969;-73
2023/12/21 04:52:44;;;;;;;;;;;;;;;;;;5096295;28;19908;-74
2023/12/21 04:55:10;;;;;;;;;;;;;;;;;;5095399;28;19973;-73
2023/12/21 04:57:36;;;;;;;;;;;;;;;;;;5095816;28;20441;-73
2023/12/21 05:00:05;;;;;;;;;;;;;;;;;;5095776;28;19908;-73
2023/12/21 05:02:31;;;;;;;;;;;;;;;;;;5095367;28;19951;-73
2023/12/21 05:04:57;;;;;;;;;;;;;;;;;;5095551;28;19959;-74
2023/12/21 05:07:23;;;;;;;;;;;;;;;;;;5095912;28;19999;-73
2023/12/21 05:09:48;;;;;;;;;;;;;;;;;;5095255;28;20496;-73
2023/12/21 05:12:14;;;;;;;;;;;;;;;;;;5088777;28;20292;-73
2023/12/21 05:14:40;;;;;;;;;;;;;;;;;;5077193;28;19912;-73
2023/12/21 05:17:06;;;;;;;;;;;;;;;;;;5095008;28;19908;-75
2023/12/21 05:19:32;;;;;;;;;;;;;;;;;;5094846;28;19908;-74
2023/12/21 05:21:58;;;;;;;;;;;;;;;;;;5094020;28;19954;-74
2023/12/21 05:24:24;;;;;;;;;;;;;;;;;;5094472;28;20356;-73
2023/12/21 05:26:50;;;;;;;;;;;;;;;;;;5095214;28;19995;-73
2023/12/21 05:29:16;;;;;;;;;;;;;;;;;;5095117;28;19916;-73
2023/12/21 05:31:42;;;;;;;;;;;;;;;;;;5094390;28;20348;-73
2023/12/21 05:34:08;;;;;;;;;;;;;;;;;;5093552;28;20284;-74
2023/12/21 05:36:34;;;;;;;;;;;;;;;;;;5092604;28;19916;-73
2023/12/21 05:39:00;;;;;;;;;;;;;;;;;;5092830;28;19915;-73
2023/12/21 05:41:26;;;;;;;;;;;;;;;;;;5092854;28;20007;-73
2023/12/21 05:43:52;;;;;;;;;;;;;;;;;;5092163;28;19920;-73
2023/12/21 05:46:18;;;;;;;;;;;;;;;;;;5074553;28;19961;-73
2023/12/21 05:48:44;;;;;;;;;;;;;;;;;;5092805;28;19915;-74
2023/12/21 05:51:10;;;;;;;;;;;;;;;;;;5092196;28;19908;-72
2023/12/21 05:53:36;;;;;;;;;;;;;;;;;;5092595;28;20367;-71
2023/12/21 05:56:02;;;;;;;;;;;;;;;;;;5092536;28;19908;-71
2023/12/21 05:58:28;;;;;;;;;;;;;;;;;;5092119;28;20007;-72
2023/12/21 06:00:54;;;;;;;;;;;;;;;;;;5092543;28;19952;-72
2023/12/21 06:03:20;;;;;;;;;;;;;;;;;;5094467;28;19954;-71
2023/12/21 06:05:46;;;;;;;;;;;;;;;;;;5075931;28;19908;-71
2023/12/21 06:08:12;;;;;;;;;;;;;;;;;;5094429;28;19951;-71
2023/12/21 06:10:38;;;;;;;;;;;;;;;;;;5094763;28;19908;-71
2023/12/21 06:13:04;;;;;;;;;;;;;;;;;;5093997;28;20353;-71
2023/12/21 06:15:30;;;;;;;;;;;;;;;;;;5093728;28;20394;-71
2023/12/21 06:17:56;;;;;;;;;;;;;;;;;;5091089;28;20323;-70
2023/12/21 06:20:22;;;;;;;;;;;;;;;;;;5074716;28;20283;-74
2023/12/21 06:22:48;;;;;;;;;;;;;;;;;;5093899;28;19920;-71
2023/12/21 06:25:13;;;;;;;;;;;;;;;;;;5090204;28;19920;-68
2023/12/21 06:27:39;;;;;;;;;;;;;;;;;;5092663;28;19908;-66
2023/12/21 06:30:05;;;;;;;;;;;;;;;;;;5084562;28;19912;-68
2023/12/21 06:32:32;;;;;;;;;;;;;;;;;;5091611;28;20363;-68
2023/12/21 06:34:58;;;;;;;;;;;;;;;;;;5072944;28;19916;-68
2023/12/21 06:37:24;;;;;;;;;;;;;;;;;;5069552;28;20030;-67
2023/12/21 06:39:50;;;;;;;;;;;;;;;;;;5089052;28;20010;-66
2023/12/21 06:42:16;;;;;;;;;;;;;;;;;;5072311;28;19958;-68
2023/12/21 06:44:42;;;;;;;;;;;;;;;;;;5089091;28;19921;-68
2023/12/21 06:47:08;;;;;;;;;;;;;;;;;;5089051;28;19982;-68
2023/12/21 06:49:34;;;;;;;;;;;;;;;;;;5088942;28;19954;-68
2023/12/21 06:52:00;;;;;;;;;;;;;;;;;;5086630;28;19912;-69
2023/12/21 06:54:26;;;;;;;;;;;;;;;;;;5086137;28;20399;-69
2023/12/21 06:56:52;;;;;;;;;;;;;;;;;;5080920;28;19921;-69
2023/12/21 06:59:18;;;;;;;;;;;;;;;;;;5083431;28;19916;-68
2023/12/21 07:01:44;;;;;;;;;;;;;;;;;;5069999;28;19958;-68
2023/12/21 07:04:11;;;;;;;;;;;;;;;;;;5082533;28;20272;-69
2023/12/21 07:06:37;;;;;;;;;;;;;;;;;;5078075;28;20008;-68
2023/12/21 07:09:03;;;;;;;;;;;;;;;;;;5069764;28;20338;-68
2023/12/21 07:11:29;;;;;;;;;;;;;;;;;;5089146;28;20280;-68
2023/12/21 07:13:55;;;;;;;;;;;;;;;;;;5073449;28;19919;-68
2023/12/21 07:16:23;;;;;;;;;;;;;;;;;;5087447;28;19927;-69
2023/12/21 07:18:50;;;;;;;;;;;;;;;;;;5068986;28;19920;-69
2023/12/21 07:21:16;;;;;;;;;;;;;;;;;;5089062;28;19991;-67
2023/12/21 07:23:42;;;;;;;;;;;;;;;;;;5071616;28;19916;-69
2023/12/21 07:26:09;;;;;;;;;;;;;;;;;;5070771;28;20368;-68
2023/12/21 07:28:35;;;;;;;;;;;;;;;;;;5090339;28;19964;-71
2023/12/21 07:31:01;;;;;;;;;;;;;;;;;;5090647;28;19916;-66
2023/12/21 07:33:27;;;;;;;;;;;;;;;;;;5096339;28;19913;-68
2023/12/21 07:35:53;;;;;;;;;;;;;;;;;;5073169;28;19918;-69
2023/12/21 07:38:19;;;;;;;;;;;;;;;;;;5093808;28;19916;-68
2023/12/21 07:40:45;;;;;;;;;;;;;;;;;;5094438;28;20065;-68
2023/12/21 07:43:11;;;;;;;;;;;;;;;;;;5076588;28;19919;-69
2023/12/21 07:45:37;;;;;;;;;;;;;;;;;;5100061;28;19992;-68
2023/12/21 07:48:03;;;;;;;;;;;;;;;;;;5107862;28;19993;-67
2023/12/21 07:50:29;;;;;;;;;;;;;;;;;;5085911;28;19964;-72
2023/12/21 07:52:56;;;;;;;;;;;;;;;;;;5095135;28;20326;-67
2023/12/21 07:55:22;;;;;;;;;;;;;;;;;;5095424;28;19962;-69
2023/12/21 07:57:48;;;;;;;;;;;;;;;;;;5095282;28;19916;-68
2023/12/21 08:00:14;;;;;;;;;;;;;;;;;;5076255;28;19918;-69
2023/12/21 08:02:44;;;;;;;;;;;;;;;;;;5093474;28;19915;-70
2023/12/21 08:05:10;;;;;;;;;;;;;;;;;;5073078;28;19927;-68
2023/12/21 08:07:36;;;;;;;;;;;;;;;;;;5092785;28;19912;-68
2023/12/21 08:10:02;;;;;;;;;;;;;;;;;;5093673;28;19954;-68
2023/12/21 08:12:28;;;;;;;;;;;;;;;;;;5094700;28;19912;-68
2023/12/21 08:14:54;;;;;;;;;;;;;;;;;;5065868;28;19977;-68
2023/12/21 08:17:20;;;;;;;;;;;;;;;;;;5090902;28;19908;-69
2023/12/21 08:19:46;;;;;;;;;;;;;;;;;;5069898;28;19997;-69
2023/12/21 08:22:12;;;;;;;;;;;;;;;;;;5086302;28;20356;-67
2023/12/21 08:24:38;;;;;;;;;;;;;;;;;;5086387;28;19924;-68
2023/12/21 08:27:06;;;;;;;;;;;;;;;;;;5084656;28;19939;-68
2023/12/21 08:29:32;;;;;;;;;;;;;;;;;;5068034;28;19956;-69
2023/12/21 08:31:57;;;;;;;;;;;;;;;;;;5087297;28;19912;-67
2023/12/21 08:34:23;;;;;;;;;;;;;;;;;;5089934;28;19908;-68
2023/12/21 08:36:50;;;;;;;;;;;;;;;;;;5092266;28;20003;-68
2023/12/21 08:39:16;;;;;;;;;;;;;;;;;;5075137;28;20010;-67
2023/12/21 08:41:42;;;;;;;;;;;;;;;;;;5090561;28;19935;-69
2023/12/21 08:44:08;;;;;;;;;;;;;;;;;;5093020;28;19931;-69
2023/12/21 08:46:34;;;;;;;;;;;;;;;;;;5074587;28;19908;-68
2023/12/21 08:49:01;;;;;;;;;;;;;;;;;;5092946;28;19944;-71
2023/12/21 08:51:26;;;;;;;;;;;;;;;;;;5072815;28;19916;-68
2023/12/21 08:53:52;;;;;;;;;;;;;;;;;;5070258;28;19912;-68
2023/12/21 08:56:18;;;;;;;;;;;;;;;;;;5088855;28;19920;-66
2023/12/21 08:58:44;;;;;;;;;;;;;;;;;;5072558;28;19912;-68
2023/12/21 09:01:10;;;;;;;;;;;;;;;;;;5091355;28;19916;-70
2023/12/21 09:03:36;;;;;;;;;;;;;;;;;;5091191;28;20281;-72
2023/12/21 09:06:02;;;;;;;;;;;;;;;;;;5090760;28;19920;-69
2023/12/21 09:08:28;;;;;;;;;;;;;;;;;;5072754;28;19982;-70
2023/12/21 09:10:54;;;;;;;;;;;;;;;;;;5071632;28;19959;-69
2023/12/21 09:13:20;;;;;;;;;;;;;;;;;;5092304;28;19912;-72
2023/12/21 09:15:46;;;;;;;;;;;;;;;;;;5090330;28;19961;-69
2023/12/21 09:18:12;;;;;;;;;;;;;;;;;;5058829;28;19912;-70
2023/12/21 09:20:38;;;;;;;;;;;;;;;;;;5062249;28;19923;-71
2023/12/21 09:23:04;;;;;;;;;;;;;;;;;;5081317;28;20020;-68
2023/12/21 09:25:31;;;;;;;;;;;;;;;;;;5083053;28;19920;-72
2023/12/21 09:27:57;;;;;;;;;;;;;;;;;;5070195;28;19916;-70
2023/12/21 09:30:25;;;;;;;;;;;;;;;;;;5068802;28;19996;-68
2023/12/21 09:32:51;;;;;;;;;;;;;;;;;;5069907;28;19919;-69
2023/12/21 09:35:18;;;;;;;;;;;;;;;;;;5070166;28;19916;-70
2023/12/21 09:37:45;;;;;;;;;;;;;;;;;;5088670;28;20485;-69
2023/12/21 09:40:12;;;;;;;;;;;;;;;;;;5089630;28;19934;-71
2023/12/21 09:42:38;;;;;;;;;;;;;;;;;;5090513;28;19912;-70
2023/12/21 09:45:05;;;;;;;;;;;;;;;;;;5068280;28;20388;-68
2023/12/21 09:47:31;;;;;;;;;;;;;;;;;;5104926;28;19916;-68
2023/12/21 09:49:58;;;;;;;;;;;;;;;;;;5088132;28;20158;-68
2023/12/21 09:52:25;;;;;;;;;;;;;;;;;;5071085;28;19928;-70
2023/12/21 09:54:51;;;;;;;;;;;;;;;;;;5090757;28;19919;-71
2023/12/21 09:57:17;;;;;;;;;;;;;;;;;;5072639;28;19912;-72
2023/12/21 09:59:43;;;;;;;;;;;;;;;;;;5090886;28;19915;-71
2023/12/21 10:02:11;;;;;;;;;;;;;;;;;;5084070;28;19920;-70
2023/12/21 10:04:37;;;;;;;;;;;;;;;;;;5070182;28;19954;-71
2023/12/21 10:07:03;;;;;;;;;;;;;;;;;;5089886;28;19916;-68
2023/12/21 10:09:31;;;;;;;;;;;;;;;;;;5092138;28;19943;-67
2023/12/21 10:11:57;;;;;;;;;;;;;;;;;;5070834;28;20356;-68
2023/12/21 10:14:24;;;;;;;;;;;;;;;;;;5090933;28;19908;-70
2023/12/21 10:16:50;;;;;;;;;;;;;;;;;;5092485;28;20452;-71
2023/12/21 10:19:16;;;;;;;;;;;;;;;;;;5086620;28;19923;-68
2023/12/21 10:21:42;;;;;;;;;;;;;;;;;;5073803;28;19912;-71
2023/12/21 10:24:08;;;;;;;;;;;;;;;;;;5090914;28;19920;-71
2023/12/21 10:26:34;;;;;;;;;;;;;;;;;;5091216;28;20360;-72
2023/12/21 10:29:00;;;;;;;;;;;;;;;;;;5073377;28;19916;-73
2023/12/21 10:31:26;;;;;;;;;;;;;;;;;;5092069;28;19908;-72
2023/12/21 10:33:52;;;;;;;;;;;;;;;;;;5091050;28;19908;-72
2023/12/21 10:36:18;;;;;;;;;;;;;;;;;;5090807;28;19916;-72
2023/12/21 10:38:44;;;;;;;;;;;;;;;;;;5090514;28;19908;-72
2023/12/21 10:41:10;;;;;;;;;;;;;;;;;;5090516;28;19908;-72
2023/12/21 10:43:36;;;;;;;;;;;;;;;;;;5072350;28;19946;-72
2023/12/21 10:46:05;;;;;;;;;;;;;;;;;;5087440;28;19934;-72
2023/12/21 10:48:33;;;;;;;;;;;;;;;;;;5091760;28;19921;-72
2023/12/21 10:50:59;;;;;;;;;;;;;;;;;;5071753;28;20368;-72
2023/12/21 10:53:25;;;;;;;;;;;;;;;;;;5074425;28;19942;-71
2023/12/21 10:55:51;;;;;;;;;;;;;;;;;;5092475;28;19908;-71
2023/12/21 10:58:17;;;;;;;;;;;;;;;;;;5073950;28;19908;-71
2023/12/21 11:00:43;;;;;;;;;;;;;;;;;;5091162;28;19962;-71
2023/12/21 11:03:09;;;;;;;;;;;;;;;;;;5071517;28;20391;-68
2023/12/21 11:05:36;;;;;;;;;;;;;;;;;;5093259;28;19978;-66
2023/12/21 11:08:04;;;;;;;;;;;;;;;;;;5073864;28;19912;-68
2023/12/21 11:10:30;;;;;;;;;;;;;;;;;;5099174;28;19923;-66
2023/12/21 11:12:56;;;;;;;;;;;;;;;;;;5093719;28;19912;-68
2023/12/21 11:15:22;;;;;;;;;;;;;;;;;;5092842;28;20495;-68
2023/12/21 11:17:48;;;;;;;;;;;;;;;;;;5074458;28;19912;-68
2023/12/21 11:20:14;;;;;;;;;;;;;;;;;;5073579;28;19920;-69
2023/12/21 11:22:40;;;;;;;;;;;;;;;;;;5093425;28;20143;-68
2023/12/21 11:25:12;;;;;;;;;;;;;;;;;;5087743;28;20010;-68
2023/12/21 11:27:38;;;;;;;;;;;;;;;;;;5073783;28;20293;-69
2023/12/21 11:30:04;;;;;;;;;;;;;;;;;;5092329;28;19912;-68
2023/12/21 11:32:30;;;;;;;;;;;;;;;;;;5092426;28;19908;-67
2023/12/21 11:34:57;;;;;;;;;;;;;;;;;;5092558;28;19963;-66
2023/12/21 11:37:24;;;;;;;;;;;;;;;;;;5074147;28;19920;-65
2023/12/21 11:39:50;;;;;;;;;;;;;;;;;;5091817;28;19961;-67
2023/12/21 11:42:16;;;;;;;;;;;;;;;;;;5091566;28;20028;-68
2023/12/21 11:44:42;;;;;;;;;;;;;;;;;;5088722;28;19931;-67
2023/12/21 11:47:09;;;;;;;;;;;;;;;;;;5073051;28;19959;-70
2023/12/21 11:49:35;;;;;;;;;;;;;;;;;;5089976;28;19967;-68
2023/12/21 11:52:01;;;;;;;;;;;;;;;;;;5091351;28;20539;-69
2023/12/21 11:54:27;;;;;;;;;;;;;;;;;;5071835;28;19940;-70
2023/12/21 11:56:53;;;;;;;;;;;;;;;;;;5070307;28;19912;-69
2023/12/21 11:59:19;;;;;;;;;;;;;;;;;;5100422;28;20423;-67
2023/12/21 12:01:45;;;;;;;;;;;;;;;;;;5089166;28;19912;-67
2023/12/21 12:04:12;;;;;;;;;;;;;;;;;;5087795;28;19927;-68
2023/12/21 12:06:38;;;;;;;;;;;;;;;;;;5071852;28;19908;-68
2023/12/21 12:09:03;;;;;;;;;;;;;;;;;;5072639;28;19916;-68
2023/12/21 12:11:29;;;;;;;;;;;;;;;;;;5089844;28;20277;-69
2023/12/21 12:13:55;;;;;;;;;;;;;;;;;;5089025;28;19930;-69
2023/12/21 12:16:22;;;;;;;;;;;;;;;;;;5073015;28;19952;-69
2023/12/21 12:18:48;;;;;;;;;;;;;;;;;;5090804;28;20533;-70
2023/12/21 12:21:14;;;;;;;;;;;;;;;;;;5076184;28;20365;-69
2023/12/21 12:23:40;;;;;;;;;;;;;;;;;;5092780;28;19927;-69
2023/12/21 12:26:06;;;;;;;;;;;;;;;;;;5091868;28;19912;-69
2023/12/21 12:28:32;;;;;;;;;;;;;;;;;;5091811;28;20493;-69
2023/12/21 12:30:58;;;;;;;;;;;;;;;;;;5092773;28;20535;-68
2023/12/21 12:33:24;;;;;;;;;;;;;;;;;;5094591;28;19908;-68
2023/12/21 12:37:27;;;;;;;;;;;;;;;;;;5131025;27;20022;-67
2023/12/21 12:39:53;;;;;;;;;;;;;;;;;;5122602;28;19911;-66
2023/12/21 12:42:19;;;;;;;;;;;;;;;;;;5127670;28;19916;-66
2023/12/21 12:46:35;;;;;;;;;;;;;;;;;;5140965;27;19924;-66
2023/12/21 12:50:30;;;;;;;;;;;;;;;;;;5088515;27;19920;-70
2023/12/21 12:52:56;;;;;;;;;;;;;;;;;;5079385;28;19913;-66
2023/12/21 12:55:23;;;;;;;;;;;;;;;;;;5069978;28;20346;-65
2023/12/21 12:57:49;;;;;;;;;;;;;;;;;;5069424;28;19913;-66
2023/12/21 13:00:15;;;;;;;;;;;;;;;;;;5071992;28;20375;-66
2023/12/21 13:05:09;;;;;;;;;;;;;;;;;;5089868;27;19920;-66
2023/12/21 13:09:26;;;;;;;;;;;;;;;;;;5110767;27;20275;-67
2023/12/21 13:11:52;;;;;;;;;;;;;;;;;;5110364;28;19947;-65
2023/12/21 13:14:18;;;;;;;;;;;;;;;;;;5110419;28;19943;-67
2023/12/21 13:16:47;;;;;;;;;;;;;;;;;;5110726;28;19908;-68
2023/12/21 13:19:13;;;;;;;;;;;;;;;;;;5108203;28;20435;-67
2023/12/21 13:31:02;;;;;;;;;;;;;;;;;;5101385;27;19916;-68
2023/12/21 13:33:28;;;;;;;;;;;;;;;;;;5086866;28;20028;-68
2023/12/21 13:35:54;;;;;;;;;;;;;;;;;;5088323;28;19993;-66
2023/12/21 13:40:15;;;;;;;;;;;;;;;;;;5111299;27;21276;-66
2023/12/21 13:42:41;;;;;;;;;;;;;;;;;;5120334;27;19942;-66
2023/12/21 13:45:07;;;;;;;;;;;;;;;;;;5108614;28;19915;-66
2023/12/21 13:47:34;;;;;;;;;;;;;;;;;;5109584;28;19912;-67
2023/12/21 13:50:00;;;;;;;;;;;;;;;;;;5107545;28;19976;-67
2023/12/21 13:54:11;;;;;;;;;;;;;;;;;;5086694;27;20296;-69
2023/12/21 13:56:37;;;;;;;;;;;;;;;;;;5085297;28;19912;-67
2023/12/21 13:59:03;;;;;;;;;;;;;;;;;;5068194;28;19919;-70
2023/12/21 14:01:49;;;;;;;;;;;;;;;;;;5088689;27;19926;-70
2023/12/21 14:04:15;;;;;;;;;;;;;;;;;;5088029;28;19913;-71
2023/12/21 14:07:56;;;;;;;;;;;;;;;;;;5091201;27;20273;-72
2023/12/21 14:10:22;;;;;;;;;;;;;;;;;;5089009;28;20301;-70
2023/12/21 14:12:48;;;;;;;;;;;;;;;;;;5089421;28;19969;-70
2023/12/21 14:15:14;;;;;;;;;;;;;;;;;;5086969;28;19915;-70
2023/12/21 14:17:40;;;;;;;;;;;;;;;;;;5088621;28;20364;-70
2023/12/21 14:20:06;;;;;;;;;;;;;;;;;;5089674;28;20402;-70
2023/12/21 14:22:32;;;;;;;;;;;;;;;;;;5088486;28;19908;-70
2023/12/21 14:26:44;;;;;;;;;;;;;;;;;;5131420;27;19912;-70
2023/12/21 14:29:10;;;;;;;;;;;;;;;;;;5129657;28;20010;-71
2023/12/21 14:31:36;;;;;;;;;;;;;;;;;;5130871;28;19957;-72
2023/12/21 14:35:51;;;;;;;;;;;;;;;;;;5090835;27;19923;-70
2023/12/21 14:38:17;;;;;;;;;;;;;;;;;;5090921;28;19912;-70
2023/12/21 14:40:59;;;;;;;;;;;;;;;;;;5092047;27;19923;-71
2023/12/21 14:44:29;;;;;;;;;;;;;;;;;;5132410;27;19919;-70
2023/12/21 14:46:55;;;;;;;;;;;;;;;;;;5132069;28;19912;-70
2023/12/21 14:49:21;;;;;;;;;;;;;;;;;;5132040;28;19960;-70
2023/12/21 14:51:47;;;;;;;;;;;;;;;;;;5131540;28;19915;-70
2023/12/21 14:54:13;;;;;;;;;;;;;;;;;;5131892;28;19950;-70
2023/12/21 14:56:39;;;;;;;;;;;;;;;;;;5131983;28;19908;-70
2023/12/21 14:59:05;;;;;;;;;;;;;;;;;;5131422;28;20352;-70
2023/12/21 15:01:31;;;;;;;;;;;;;;;;;;5131710;28;19911;-70
2023/12/21 15:03:57;;;;;;;;;;;;;;;;;;5131531;28;20501;-71
2023/12/21 15:06:23;;;;;;;;;;;;;;;;;;5131725;28;20010;-70
2023/12/21 15:08:49;;;;;;;;;;;;;;;;;;5131628;28;19908;-70
2023/12/21 15:11:15;;;;;;;;;;;;;;;;;;5131626;28;19908;-69
2023/12/21 15:13:41;;;;;;;;;;;;;;;;;;5131074;28;19914;-70
2023/12/21 15:16:07;;;;;;;;;;;;;;;;;;5131581;28;19912;-70
2023/12/21 15:18:33;;;;;;;;;;;;;;;;;;5131739;28;19933;-69
2023/12/21 15:20:59;;;;;;;;;;;;;;;;;;5131014;28;19908;-69
2023/12/21 15:23:25;;;;;;;;;;;;;;;;;;5131919;28;19923;-70
2023/12/21 15:25:51;;;;;;;;;;;;;;;;;;5131348;28;19907;-69
2023/12/21 15:28:17;;;;;;;;;;;;;;;;;;5130977;28;20312;-69
2023/12/21 15:30:43;;;;;;;;;;;;;;;;;;5131724;28;20378;-69
2023/12/21 15:33:08;;;;;;;;;;;;;;;;;;5131310;28;19907;-70
2023/12/21 15:35:34;;;;;;;;;;;;;;;;;;5130798;28;19908;-70
2023/12/21 15:38:00;;;;;;;;;;;;;;;;;;5131165;28;20007;-70
2023/12/21 15:40:26;;;;;;;;;;;;;;;;;;5131049;28;19908;-71
2023/12/21 15:42:53;;;;;;;;;;;;;;;;;;5130394;28;19927;-71
2023/12/21 15:45:19;;;;;;;;;;;;;;;;;;5129505;28;19908;-71
2023/12/21 15:47:45;;;;;;;;;;;;;;;;;;5131198;28;19933;-70
2023/12/21 15:50:12;;;;;;;;;;;;;;;;;;5131158;28;19914;-71
2023/12/21 15:52:38;;;;;;;;;;;;;;;;;;5129476;28;20257;-70
2023/12/21 15:55:04;;;;;;;;;;;;;;;;;;5121049;28;19914;-70
2023/12/21 15:57:32;;;;;;;;;;;;;;;;;;5116033;28;19972;-68
2023/12/21 15:59:58;;;;;;;;;;;;;;;;;;5117113;28;19949;-70
2023/12/21 16:02:24;;;;;;;;;;;;;;;;;;5116710;28;20394;-70
2023/12/21 16:04:50;;;;;;;;;;;;;;;;;;5117025;28;19911;-70
2023/12/21 16:07:16;;;;;;;;;;;;;;;;;;5115730;28;19907;-70
2023/12/21 16:09:42;;;;;;;;;;;;;;;;;;5116434;28;19908;-70
2023/12/21 16:12:08;;;;;;;;;;;;;;;;;;5115535;28;19908;-70
2023/12/21 16:14:34;;;;;;;;;;;;;;;;;;5116824;28;19915;-71
2023/12/21 16:17:00;;;;;;;;;;;;;;;;;;5116461;28;19908;-71
2023/12/21 16:19:26;;;;;;;;;;;;;;;;;;5116690;28;19990;-70
2023/12/21 16:21:52;;;;;;;;;;;;;;;;;;5116581;28;20379;-70
2023/12/21 16:24:18;;;;;;;;;;;;;;;;;;5114797;28;20336;-71
2023/12/21 16:26:44;;;;;;;;;;;;;;;;;;5116582;28;19999;-71
2023/12/21 16:29:10;;;;;;;;;;;;;;;;;;5116476;28;19908;-71
2023/12/21 16:31:36;;;;;;;;;;;;;;;;;;5116038;28;19915;-70
2023/12/21 16:34:02;;;;;;;;;;;;;;;;;;5115121;28;20298;-70
2023/12/21 16:36:28;;;;;;;;;;;;;;;;;;5115056;28;19957;-70
2023/12/21 16:38:55;;;;;;;;;;;;;;;;;;5115990;28;20283;-70
2023/12/21 16:41:21;;;;;;;;;;;;;;;;;;5116301;28;20491;-70
2023/12/21 16:43:47;;;;;;;;;;;;;;;;;;5116174;28;19930;-70
2023/12/21 16:46:13;;;;;;;;;;;;;;;;;;5115850;28;19907;-70
2023/12/21 16:48:39;;;;;;;;;;;;;;;;;;5114884;28;19908;-70
2023/12/21 16:51:05;;;;;;;;;;;;;;;;;;5115891;28;20272;-70
2023/12/21 16:53:31;;;;;;;;;;;;;;;;;;5116066;28;19908;-70
2023/12/21 16:55:57;;;;;;;;;;;;;;;;;;5114773;28;19950;-70
2023/12/21 16:58:23;;;;;;;;;;;;;;;;;;5115482;28;19908;-70
2023/12/21 17:00:49;;;;;;;;;;;;;;;;;;5116062;28;19908;-70
2023/12/21 17:03:15;;;;;;;;;;;;;;;;;;5114549;28;20015;-70
2023/12/21 17:05:41;;;;;;;;;;;;;;;;;;5114660;28;19912;-70